Time;durP1;ratioP1;P1;durP2;ratioP2;P2;SDS_P1;SDS_P2;PMS_P1;PMS_P2;Temp;Humidity;BMP_temperature;BMP_pressure;BME280_temperature;BME280_humidity;BME280_pressure;Samples;Min_cycle;Max_cycle;Signal;HPM_P1;HPM_P2
2022/06/05 00:00:21;;;;;;;7.85;6.35;;;;;;;18.79;75.94;100925.44;691527;28;1163;-44
2022/06/05 00:01:09;;;;;;;7.70;6.60;;;;;;;18.76;75.65;100925.56;689544;28;1241;-45
2022/06/05 00:01:59;;;;;;;7.43;6.60;;;;;;;18.77;75.37;100922.84;688870;28;4380;-46
2022/06/05 00:02:33;;;;;;;7.30;6.60;;;;;;;18.79;75.44;100915.75;689510;28;1039;-44
2022/06/05 00:03:18;;;;;;;6.70;6.10;;;;;;;18.88;75.32;100919.88;689599;28;1130;-46
2022/06/05 00:03:48;;;;;;;7.70;6.30;;;;;;;18.86;74.75;100916.41;689082;28;1131;-44
2022/06/05 00:04:26;;;;;;;6.97;6.38;;;;;;;18.84;74.81;100915.56;686912;28;2156;-45
2022/06/05 00:05:06;;;;;;;6.90;6.30;;;;;;;18.83;75.28;100920.00;686929;28;5033;-46
2022/06/05 00:05:29;;;;;;;7.13;6.45;;;;;;;18.87;74.83;100919.00;687831;28;1772;-45
2022/06/05 00:06:10;;;;;;;7.18;6.47;;;;;;;18.86;74.37;100921.69;688134;28;1263;-45
2022/06/05 00:06:45;;;;;;;6.93;6.28;;;;;;;18.85;74.40;100914.66;692938;28;1078;-44
2022/06/05 00:07:15;;;;;;;7.05;6.40;;;;;;;18.85;74.71;100912.84;692768;28;1097;-44
2022/06/05 00:07:47;;;;;;;7.53;6.25;;;;;;;18.87;74.64;100912.81;691559;28;4260;-45
2022/06/05 00:08:19;;;;;;;7.82;6.85;;;;;;;18.84;74.57;100919.09;691204;28;1488;-45
2022/06/05 00:09:11;;;;;;;7.22;6.30;;;;;;;18.79;74.91;100917.50;689905;28;1314;-45
2022/06/05 00:09:38;;;;;;;7.13;6.43;;;;;;;18.75;75.10;100915.88;689728;28;1183;-45
2022/06/05 00:10:13;;;;;;;7.22;6.47;;;;;;;18.71;75.83;100917.78;688872;28;1126;-45
2022/06/05 00:10:54;;;;;;;7.05;6.35;;;;;;;18.74;75.14;100916.81;690492;28;4498;-46
2022/06/05 00:11:15;;;;;;;7.40;6.70;;;;;;;18.75;75.65;100918.53;688391;28;1154;-44
2022/06/05 00:11:43;;;;;;;7.32;6.63;;;;;;;18.79;75.52;100915.75;691225;28;1333;-44
2022/06/05 00:12:12;;;;;;;6.95;6.25;;;;;;;18.76;75.52;100913.22;689693;28;1436;-45
2022/06/05 00:12:45;;;;;;;7.15;6.45;;;;;;;18.77;75.30;100933.44;692465;28;1122;-45
2022/06/05 00:13:14;;;;;;;7.05;6.35;;;;;;;18.79;75.40;100920.16;691717;28;1425;-45
2022/06/05 00:13:45;;;;;;;6.68;6.07;;;;;;;18.75;74.87;100922.06;688648;28;4424;-43
2022/06/05 00:14:06;;;;;;;7.50;6.70;;;;;;;18.78;74.72;100921.94;691600;28;1378;-43
2022/06/05 00:14:26;;;;;;;7.40;6.60;;;;;;;18.81;74.66;100923.63;691207;28;1395;-42
2022/06/05 00:14:47;;;;;;;7.05;6.35;;;;;;;18.79;74.71;100928.09;690301;28;1507;-44
2022/06/05 00:15:09;;;;;;;8.32;6.20;;;;;;;18.79;75.14;100928.97;686809;28;1389;-42
2022/06/05 00:15:30;;;;;;;6.80;6.10;;;;;;;18.75;75.02;100931.78;688478;28;2075;-43
2022/06/05 00:15:50;;;;;;;7.25;6.10;;;;;;;18.74;75.15;100932.72;689162;28;1187;-42
2022/06/05 00:16:16;;;;;;;6.93;6.33;;;;;;;18.75;74.89;100932.66;690526;28;1250;-46
2022/06/05 00:16:36;;;;;;;7.28;6.60;;;;;;;18.76;74.75;100930.84;686326;28;4313;-45
2022/06/05 00:16:58;;;;;;;7.53;6.43;;;;;;;18.74;75.05;100927.41;688764;28;2104;-44
2022/06/05 00:17:21;;;;;;;7.10;6.40;;;;;;;18.78;74.94;100929.03;689301;28;1155;-45
2022/06/05 00:17:41;;;;;;;7.38;6.68;;;;;;;18.83;74.55;100927.97;688106;28;1476;-46
2022/06/05 00:18:02;;;;;;;7.00;6.30;;;;;;;18.86;74.10;100924.34;688332;28;1591;-46
2022/06/05 00:18:23;;;;;;;6.88;6.18;;;;;;;18.86;74.04;100921.69;687875;28;1283;-44
2022/06/05 00:18:44;;;;;;;7.45;6.63;;;;;;;18.83;74.49;100924.41;690063;28;1276;-46
2022/06/05 00:19:05;;;;;;;7.15;6.45;;;;;;;18.83;74.43;100921.78;690968;28;1143;-45
2022/06/05 00:19:25;;;;;;;6.77;6.00;;;;;;;18.77;74.58;100922.00;690177;28;5445;-42
2022/06/05 00:19:49;;;;;;;7.23;6.33;;;;;;;18.78;75.28;100923.75;689558;28;1516;-42
2022/06/05 00:20:11;;;;;;;6.90;6.20;;;;;;;18.80;74.76;100929.84;690390;28;1242;-43
2022/06/05 00:20:32;;;;;;;7.05;6.35;;;;;;;18.79;74.97;100928.97;690262;28;1273;-43
2022/06/05 00:20:53;;;;;;;6.97;6.28;;;;;;;18.83;74.50;100921.78;684896;28;1227;-41
2022/06/05 00:21:14;;;;;;;8.50;6.15;;;;;;;18.82;74.74;100920.06;683319;28;1287;-43
2022/06/05 00:21:35;;;;;;;7.85;6.45;;;;;;;18.82;74.70;100922.72;682955;28;1236;-43
2022/06/05 00:21:55;;;;;;;7.00;6.40;;;;;;;18.82;74.42;100923.56;683943;28;1363;-42
2022/06/05 00:22:16;;;;;;;7.20;6.50;;;;;;;18.78;75.14;100919.31;685306;28;1298;-43
2022/06/05 00:22:38;;;;;;;7.20;6.20;;;;;;;18.83;74.60;100921.78;684651;28;4359;-44
2022/06/05 00:22:59;;;;;;;7.10;6.38;;;;;;;18.85;74.92;100930.53;690879;28;1112;-43
2022/06/05 00:23:19;;;;;;;7.20;6.50;;;;;;;18.86;75.06;100922.53;687963;28;1432;-43
2022/06/05 00:23:40;;;;;;;7.00;6.38;;;;;;;18.86;74.50;100916.41;688282;28;1104;-44
2022/06/05 00:24:01;;;;;;;6.93;6.22;;;;;;;18.84;74.29;100924.41;688858;28;1399;-44
2022/06/05 00:24:21;;;;;;;6.90;6.27;;;;;;;18.84;74.02;100926.16;686402;28;1299;-44
2022/06/05 00:24:41;;;;;;;7.20;6.50;;;;;;;18.79;74.53;100930.75;683726;28;1414;-44
2022/06/05 00:25:02;;;;;;;6.97;6.27;;;;;;;18.75;74.77;100930.00;683218;28;1229;-43
2022/06/05 00:25:29;;;;;;;7.10;6.38;;;;;;;18.71;75.58;100917.78;685605;28;4583;-45
2022/06/05 00:26:19;;;;;;;7.00;6.30;;;;;;;18.74;75.09;100924.75;685790;28;1250;-44
2022/06/05 00:26:50;;;;;;;6.93;6.25;;;;;;;18.71;74.84;100923.09;681512;28;1856;-44
2022/06/05 00:27:23;;;;;;;6.82;6.15;;;;;;;18.66;75.16;100931.19;692175;28;1378;-44
2022/06/05 00:28:04;;;;;;;6.88;6.25;;;;;;;18.75;74.75;100926.47;686606;28;1524;-43
2022/06/05 00:28:36;;;;;;;7.50;6.10;;;;;;;18.74;74.62;100922.97;686574;28;4454;-45
2022/06/05 00:29:19;;;;;;;6.90;6.20;;;;;;;18.71;74.72;100918.63;687987;28;1565;-43
2022/06/05 00:29:49;;;;;;;7.05;6.35;;;;;;;18.71;74.98;100918.63;686825;28;1345;-43
2022/06/05 00:30:21;;;;;;;6.82;6.22;;;;;;;18.70;74.83;100924.84;687905;28;1686;-44
2022/06/05 00:31:13;;;;;;;6.90;6.20;;;;;;;18.79;74.61;100914.84;685986;28;1299;-43
2022/06/05 00:32:06;;;;;;;6.70;6.00;;;;;;;18.74;74.44;100916.81;688112;28;5389;-43
2022/06/05 00:32:30;;;;;;;7.00;6.30;;;;;;;18.76;74.47;100914.97;690328;28;1353;-44
2022/06/05 00:33:04;;;;;;;6.60;6.00;;;;;;;18.73;74.53;100910.63;689152;28;1258;-43
2022/06/05 00:33:38;;;;;;;8.45;6.20;;;;;;;18.69;74.68;100915.19;688477;28;1117;-44
2022/06/05 00:33:58;;;;;;;6.75;6.00;;;;;;;18.67;74.93;100908.22;690336;28;1206;-44
2022/06/05 00:34:19;;;;;;;6.70;6.03;;;;;;;18.64;75.25;100906.53;688212;28;1409;-43
2022/06/05 00:34:39;;;;;;;6.85;6.20;;;;;;;18.72;74.56;100914.22;688937;28;5381;-43
2022/06/05 00:35:00;;;;;;;7.00;6.30;;;;;;;18.69;74.64;100912.56;686824;28;1742;-43
2022/06/05 00:35:21;;;;;;;7.30;6.60;;;;;;;18.69;74.64;100909.91;692222;28;1916;-44
2022/06/05 00:35:56;;;;;;;7.03;6.37;;;;;;;18.69;74.67;100914.31;692133;28;1285;-44
2022/06/05 00:36:34;;;;;;;7.00;6.30;;;;;;;18.69;74.97;100912.56;691676;28;1489;-44
2022/06/05 00:37:07;;;;;;;7.30;6.60;;;;;;;18.65;75.20;100910.03;692899;28;1096;-43
2022/06/05 00:37:52;;;;;;;7.00;6.30;;;;;;;18.68;74.77;100908.16;688605;28;4585;-43
2022/06/05 00:38:26;;;;;;;6.80;6.20;;;;;;;18.63;75.53;100909.25;688779;28;1449;-43
2022/06/05 00:38:46;;;;;;;7.43;6.72;;;;;;;18.62;75.64;100911.03;688301;28;1511;-43
2022/06/05 00:39:31;;;;;;;7.30;6.60;;;;;;;18.61;75.21;100906.66;686415;28;1610;-42
2022/06/05 00:40:03;;;;;;;6.72;6.13;;;;;;;18.60;75.38;100904.91;686661;28;1416;-44
2022/06/05 00:40:26;;;;;;;6.85;6.10;;;;;;;18.59;75.24;100897.88;690183;28;4394;-43
2022/06/05 00:41:24;;;;;;;7.50;6.30;;;;;;;18.59;75.26;100908.47;689874;28;1358;-44
2022/06/05 00:42:13;;;;;;;7.72;6.38;;;;;;;18.60;74.85;100909.34;689406;28;1207;-42
2022/06/05 00:42:34;;;;;;;6.95;6.25;;;;;;;18.55;75.43;100897.13;690281;28;4991;-43
2022/06/05 00:42:57;;;;;;;6.85;6.18;;;;;;;18.55;75.92;100898.91;689365;28;1590;-43
2022/06/05 00:43:21;;;;;;;7.05;6.40;;;;;;;18.51;76.23;100899.94;688455;28;1258;-43
2022/06/05 00:43:42;;;;;;;6.75;5.95;;;;;;;18.50;75.91;100898.22;689998;28;4844;-43
2022/06/05 00:44:05;;;;;;;7.13;6.43;;;;;;;18.50;76.01;100890.28;689400;28;1146;-44
2022/06/05 00:44:29;;;;;;;6.78;6.18;;;;;;;18.50;76.07;100900.88;690055;28;1172;-44
2022/06/05 00:44:55;;;;;;;6.75;6.05;;;;;;;18.46;77.51;100892.16;690753;28;1367;-43
2022/06/05 00:45:16;;;;;;;6.78;6.18;;;;;;;18.52;75.89;100893.72;692491;28;1347;-43
2022/06/05 00:45:39;;;;;;;6.72;6.13;;;;;;;18.54;75.84;100905.13;691599;28;1330;-43
2022/06/05 00:46:00;;;;;;;7.05;6.35;;;;;;;18.54;75.33;100897.19;693796;28;1198;-42
2022/06/05 00:46:23;;;;;;;7.22;6.53;;;;;;;18.53;76.21;100901.59;689721;28;4294;-43
2022/06/05 00:46:47;;;;;;;6.78;6.18;;;;;;;18.50;76.26;100895.56;689353;28;1322;-43
2022/06/05 00:47:12;;;;;;;7.00;6.30;;;;;;;18.49;75.65;100902.63;688388;28;1449;-43
2022/06/05 00:47:33;;;;;;;6.72;6.10;;;;;;;18.48;75.36;100903.53;688266;28;1301;-43
2022/06/05 00:47:54;;;;;;;6.80;6.13;;;;;;;18.48;75.50;100900.03;690745;28;1047;-44
2022/06/05 00:48:15;;;;;;;7.07;6.38;;;;;;;18.49;76.02;100896.47;689012;28;1286;-44
2022/06/05 00:48:35;;;;;;;7.22;6.50;;;;;;;18.44;76.31;100895.75;689771;28;1186;-43
2022/06/05 00:48:56;;;;;;;7.10;6.40;;;;;;;18.43;76.09;100883.44;690077;28;1202;-43
2022/06/05 00:49:19;;;;;;;6.90;6.30;;;;;;;18.41;76.35;100895.88;689265;28;1388;-44
2022/06/05 00:49:44;;;;;;;7.10;6.40;;;;;;;18.39;75.99;100895.94;689540;28;4330;-43
2022/06/05 00:50:35;;;;;;;7.00;6.30;;;;;;;18.34;76.79;100893.41;689901;28;1515;-43
2022/06/05 00:50:56;;;;;;;6.97;6.28;;;;;;;18.41;76.03;100891.44;679799;28;1450;-43
2022/06/05 00:51:16;;;;;;;7.07;6.38;;;;;;;18.41;75.97;100888.78;685465;28;1308;-44
2022/06/05 00:51:38;;;;;;;7.20;6.20;;;;;;;18.42;75.95;100890.53;689008;28;1298;-45
2022/06/05 00:51:59;;;;;;;6.97;6.28;;;;;;;18.45;76.46;100886.91;688965;28;1132;-43
2022/06/05 00:52:22;;;;;;;6.90;6.28;;;;;;;18.43;76.36;100888.72;690993;28;1240;-43
2022/06/05 00:52:48;;;;;;;7.72;6.40;;;;;;;18.40;76.55;100889.72;687159;28;4600;-44
2022/06/05 00:53:10;;;;;;;7.32;6.40;;;;;;;18.34;76.37;100893.41;687767;28;1413;-43
2022/06/05 00:53:31;;;;;;;7.00;5.65;;;;;;;18.37;75.92;100887.16;690820;28;1135;-44
2022/06/05 00:53:51;;;;;;;7.77;6.17;;;;;;;18.36;76.08;100888.09;689337;28;1155;-44
2022/06/05 00:54:12;;;;;;;7.03;6.32;;;;;;;18.40;75.87;100889.72;690058;28;1155;-43
2022/06/05 00:54:32;;;;;;;7.10;6.20;;;;;;;18.37;76.39;100888.03;690469;28;1269;-43
2022/06/05 00:54:53;;;;;;;7.28;6.20;;;;;;;18.41;76.11;100891.44;688885;28;1261;-44
2022/06/05 00:55:15;;;;;;;6.73;6.00;;;;;;;18.41;76.36;100882.63;689663;28;1203;-43
2022/06/05 00:55:40;;;;;;;6.57;5.97;;;;;;;18.39;75.96;100893.28;689255;28;4732;-43
2022/06/05 00:56:01;;;;;;;6.50;5.90;;;;;;;18.37;76.23;100887.16;687589;28;1417;-43
2022/06/05 00:56:22;;;;;;;6.60;6.00;;;;;;;18.35;76.25;100884.56;687918;28;1337;-44
2022/06/05 00:56:43;;;;;;;6.95;6.25;;;;;;;18.33;76.01;100888.19;685458;28;1134;-43
2022/06/05 00:57:07;;;;;;;6.90;6.20;;;;;;;18.31;76.15;100884.75;684778;28;1103;-43
2022/06/05 00:57:30;;;;;;;7.10;6.40;;;;;;;18.33;76.08;100886.41;682486;28;1536;-43
2022/06/05 00:57:53;;;;;;;7.07;6.40;;;;;;;18.31;76.20;100890.88;683194;28;1176;-44
2022/06/05 00:58:16;;;;;;;6.90;6.30;;;;;;;18.30;76.46;100883.84;686867;28;1291;-43
2022/06/05 00:58:36;;;;;;;7.07;6.38;;;;;;;18.29;76.54;100884.78;688729;28;4677;-43
2022/06/05 00:58:57;;;;;;;7.27;6.27;;;;;;;18.41;75.58;100886.13;689396;28;1182;-43
2022/06/05 00:59:20;;;;;;;6.80;6.10;;;;;;;18.41;76.23;100886.13;689778;28;1412;-43
2022/06/05 00:59:43;;;;;;;6.68;6.05;;;;;;;18.46;75.97;100886.00;690822;28;1167;-43
2022/06/05 01:00:13;;;;;;;6.68;6.07;;;;;;;18.44;75.63;100887.81;689744;28;1372;-45
2022/06/05 01:00:38;;;;;;;6.57;5.97;;;;;;;18.40;75.19;100883.56;689174;28;1198;-44
2022/06/05 01:00:58;;;;;;;7.00;6.30;;;;;;;18.39;75.63;100888.00;688723;28;1194;-43
2022/06/05 01:01:19;;;;;;;6.60;5.97;;;;;;;18.40;75.40;100887.09;692161;28;968;-44
2022/06/05 01:01:41;;;;;;;6.90;6.20;;;;;;;18.40;75.83;100883.56;691253;28;4265;-43
2022/06/05 01:02:02;;;;;;;6.60;5.95;;;;;;;18.40;75.89;100891.50;691783;28;1564;-45
2022/06/05 01:02:23;;;;;;;6.60;6.00;;;;;;;18.40;75.40;100892.38;691630;28;1373;-43
2022/06/05 01:02:47;;;;;;;6.75;6.15;;;;;;;18.41;75.51;100886.13;692539;28;1095;-43
2022/06/05 01:03:10;;;;;;;6.63;6.00;;;;;;;18.38;75.40;100887.09;691842;28;1204;-43
2022/06/05 01:03:31;;;;;;;8.15;6.10;;;;;;;18.38;75.28;100883.59;691760;28;1333;-43
2022/06/05 01:03:51;;;;;;;7.20;6.07;;;;;;;18.41;75.05;100891.44;691665;28;1024;-44
2022/06/05 01:04:13;;;;;;;6.40;5.80;;;;;;;18.40;75.51;100881.78;689244;28;1162;-42
2022/06/05 01:04:36;;;;;;;6.40;5.80;;;;;;;18.40;75.50;100880.91;687936;28;4365;-43
2022/06/05 01:04:56;;;;;;;6.97;6.20;;;;;;;18.41;75.20;100882.63;689268;28;1131;-44
2022/06/05 01:05:19;;;;;;;6.63;5.93;;;;;;;18.44;75.32;100878.13;688597;28;1461;-43
2022/06/05 01:05:40;;;;;;;7.18;6.20;;;;;;;18.41;75.21;100877.34;687451;28;1405;-43
2022/06/05 01:06:01;;;;;;;6.85;6.05;;;;;;;18.46;75.02;100870.97;687861;28;1319;-43
2022/06/05 01:06:21;;;;;;;6.43;5.70;;;;;;;18.50;74.63;100872.59;687377;28;1298;-44
2022/06/05 01:06:41;;;;;;;6.72;5.95;;;;;;;18.49;75.15;100870.88;686638;28;1363;-43
2022/06/05 01:07:02;;;;;;;6.53;5.93;;;;;;;18.46;75.09;100872.78;684591;28;1426;-43
2022/06/05 01:07:23;;;;;;;7.18;5.53;;;;;;;18.42;75.52;100872.00;687168;28;4284;-43
2022/06/05 01:07:43;;;;;;;6.77;5.83;;;;;;;18.44;75.51;100872.81;690414;28;1549;-43
2022/06/05 01:08:04;;;;;;;6.80;6.20;;;;;;;18.44;75.13;100870.19;690668;28;1460;-43
2022/06/05 01:08:26;;;;;;;6.80;6.10;;;;;;;18.43;75.77;100864.91;689235;28;1345;-43
2022/06/05 01:08:46;;;;;;;6.53;5.93;;;;;;;18.41;76.03;100859.66;689399;28;1496;-43
2022/06/05 01:09:06;;;;;;;6.67;6.07;;;;;;;18.37;75.36;100872.16;689499;28;1484;-43
2022/06/05 01:09:27;;;;;;;6.70;6.10;;;;;;;18.37;75.26;100866.88;689593;28;1517;-44
2022/06/05 01:09:49;;;;;;;6.70;6.00;;;;;;;18.35;75.14;100873.97;687602;28;1566;-44
2022/06/05 01:10:10;;;;;;;7.07;5.90;;;;;;;18.34;75.40;100874.03;687671;28;1407;-43
2022/06/05 01:10:45;;;;;;;6.97;5.90;;;;;;;18.33;75.43;100869.66;681649;28;4612;-43
2022/06/05 01:11:27;;;;;;;6.93;6.20;;;;;;;18.36;75.13;100867.78;684999;28;1376;-45
2022/06/05 01:11:58;;;;;;;7.10;6.40;;;;;;;18.35;75.27;100868.69;686321;28;1573;-43
2022/06/05 01:12:43;;;;;;;6.40;5.80;;;;;;;18.33;75.70;100862.59;685215;28;1326;-43
2022/06/05 01:13:12;;;;;;;6.80;6.13;;;;;;;18.38;75.59;100870.38;686043;28;1310;-44
2022/06/05 01:13:49;;;;;;;6.68;6.07;;;;;;;18.36;75.48;100866.94;687675;28;4408;-44
2022/06/05 01:14:30;;;;;;;6.43;5.82;;;;;;;18.29;76.46;100868.03;688101;28;1314;-43
2022/06/05 01:14:56;;;;;;;6.50;5.90;;;;;;;18.30;75.83;100864.47;688973;28;1243;-43
2022/06/05 01:15:28;;;;;;;6.68;5.95;;;;;;;18.34;75.46;100864.31;690121;28;1373;-43
2022/06/05 01:16:03;;;;;;;6.80;6.10;;;;;;;18.31;76.41;100861.78;691009;28;1693;-44
2022/06/05 01:16:30;;;;;;;6.57;5.90;;;;;;;18.31;75.63;100856.47;690448;28;4833;-43
2022/06/05 01:16:59;;;;;;;6.72;6.05;;;;;;;18.34;75.34;100861.66;687079;28;1310;-43
2022/06/05 01:17:22;;;;;;;6.85;6.15;;;;;;;18.34;75.23;100856.38;688443;28;1413;-43
2022/06/05 01:18:04;;;;;;;6.35;5.75;;;;;;;18.35;75.58;100860.75;690370;28;1377;-44
2022/06/05 01:18:41;;;;;;;6.40;5.80;;;;;;;18.33;75.90;100864.38;690282;28;1556;-43
2022/06/05 01:19:13;;;;;;;9.50;6.10;;;;;;;18.31;75.05;100863.56;690834;28;1413;-43
2022/06/05 01:19:55;;;;;;;6.60;5.85;;;;;;;18.32;74.99;100858.22;688492;28;4288;-43
2022/06/05 01:20:35;;;;;;;6.25;5.70;;;;;;;18.47;74.56;100863.88;690904;28;1337;-44
2022/06/05 01:21:20;;;;;;;6.65;5.93;;;;;;;18.46;74.55;100859.53;688558;28;981;-43
2022/06/05 01:22:09;;;;;;;6.68;5.65;;;;;;;18.42;75.21;100860.56;689069;28;1386;-44
2022/06/05 01:22:48;;;;;;;6.55;5.88;;;;;;;18.50;74.22;100862.00;688500;28;4457;-44
2022/06/05 01:23:21;;;;;;;6.75;6.10;;;;;;;18.48;74.24;100858.53;688696;28;1516;-45
2022/06/05 01:23:57;;;;;;;7.15;6.20;;;;;;;18.53;74.21;100866.34;689605;28;1142;-44
2022/06/05 01:24:48;;;;;;;6.25;5.65;;;;;;;18.49;75.12;100864.72;691943;28;1188;-44
2022/06/05 01:25:30;;;;;;;6.43;5.72;;;;;;;18.47;74.38;100861.25;687813;28;1504;-43
2022/06/05 01:26:03;;;;;;;6.13;5.53;;;;;;;18.43;74.33;100862.25;687490;28;4707;-43
2022/06/05 01:26:45;;;;;;;7.10;6.00;;;;;;;18.41;74.39;100867.63;687867;28;1247;-43
2022/06/05 01:27:12;;;;;;;6.82;6.22;;;;;;;18.40;74.87;100857.09;688579;28;1311;-43
2022/06/05 01:27:37;;;;;;;6.13;5.53;;;;;;;18.36;75.14;100862.50;689572;28;1151;-43
2022/06/05 01:28:03;;;;;;;7.20;5.95;;;;;;;18.39;74.84;100864.16;689668;28;1183;-43
2022/06/05 01:28:31;;;;;;;6.43;5.80;;;;;;;18.44;74.69;100858.72;688091;28;4337;-43
2022/06/05 01:29:00;;;;;;;6.30;5.70;;;;;;;18.42;74.88;100863.19;688898;28;1186;-43
2022/06/05 01:29:46;;;;;;;6.57;5.90;;;;;;;18.42;74.88;100864.06;690372;28;1142;-45
2022/06/05 01:30:17;;;;;;;6.50;5.90;;;;;;;18.40;74.92;100865.03;690561;28;1523;-43
2022/06/05 01:30:49;;;;;;;6.25;5.65;;;;;;;18.37;75.45;100866.88;689268;28;1716;-44
2022/06/05 01:31:31;;;;;;;6.78;6.07;;;;;;;18.36;74.92;100870.44;689639;28;1199;-44
2022/06/05 01:31:57;;;;;;;7.00;5.93;;;;;;;18.33;74.98;100862.59;689126;28;4901;-44
2022/06/05 01:32:41;;;;;;;6.25;5.65;;;;;;;18.31;75.27;100859.13;690183;28;1326;-43
2022/06/05 01:33:12;;;;;;;6.97;5.85;;;;;;;18.30;75.06;100859.19;690013;28;1147;-44
2022/06/05 01:33:35;;;;;;;6.47;5.88;;;;;;;18.30;75.25;100860.03;690772;28;1206;-43
2022/06/05 01:34:10;;;;;;;6.93;6.15;;;;;;;18.29;74.91;100854.78;690218;28;1143;-43
2022/06/05 01:34:45;;;;;;;6.78;6.00;;;;;;;18.31;75.09;100856.47;689176;28;4461;-44
2022/06/05 01:35:17;;;;;;;6.35;5.75;;;;;;;18.30;74.96;100853.88;691715;28;1502;-45
2022/06/05 01:35:53;;;;;;;6.32;5.70;;;;;;;18.30;75.33;100854.75;689389;28;1967;-43
2022/06/05 01:36:28;;;;;;;6.60;5.78;;;;;;;18.33;75.21;100844.06;689768;28;1354;-43
2022/06/05 01:37:01;;;;;;;7.00;6.20;;;;;;;18.33;75.18;100849.38;690226;28;1396;-43
2022/06/05 01:37:33;;;;;;;6.57;5.95;;;;;;;18.35;74.80;100842.22;691145;28;4354;-45
2022/06/05 01:38:14;;;;;;;6.88;6.00;;;;;;;18.42;74.68;100847.31;690329;28;1035;-43
2022/06/05 01:38:49;;;;;;;6.50;5.90;;;;;;;18.45;74.38;100845.41;692643;28;1276;-43
2022/06/05 01:39:24;;;;;;;9.13;6.00;;;;;;;18.46;74.61;100841.88;694273;28;1235;-44
2022/06/05 01:39:51;;;;;;;6.28;5.68;;;;;;;18.48;74.31;100841.81;691542;28;1216;-43
2022/06/05 01:40:18;;;;;;;6.80;5.57;;;;;;;18.47;74.60;100840.94;692264;28;1215;-44
2022/06/05 01:40:45;;;;;;;6.25;5.50;;;;;;;18.42;74.67;100839.38;688765;28;4293;-43
2022/06/05 01:41:11;;;;;;;8.60;6.00;;;;;;;18.36;75.05;100843.09;691250;28;1287;-43
2022/06/05 01:41:39;;;;;;;6.60;5.90;;;;;;;18.34;75.24;100840.50;689703;28;1373;-44
2022/06/05 01:42:05;;;;;;;6.65;5.95;;;;;;;18.36;75.41;100845.75;688194;28;1162;-43
2022/06/05 01:42:30;;;;;;;6.75;6.05;;;;;;;18.37;75.13;100840.41;689158;28;4925;-43
2022/06/05 01:42:57;;;;;;;6.63;5.88;;;;;;;18.33;75.52;100843.19;690791;28;1144;-48
2022/06/05 01:43:21;;;;;;;6.60;6.00;;;;;;;18.33;75.84;100835.25;690550;28;1373;-43
2022/06/05 01:43:47;;;;;;;6.70;6.00;;;;;;;18.37;75.13;100839.53;689971;28;4881;-43
2022/06/05 01:44:14;;;;;;;6.68;5.60;;;;;;;18.33;75.14;100838.78;690783;28;1601;-45
2022/06/05 01:44:47;;;;;;;6.97;6.30;;;;;;;18.33;75.48;100830.84;690059;28;1155;-43
2022/06/05 01:45:20;;;;;;;7.03;5.93;;;;;;;18.34;75.19;100829.06;690135;28;1450;-44
2022/06/05 01:46:10;;;;;;;6.20;5.60;;;;;;;18.36;74.57;100829.88;689098;28;1187;-43
2022/06/05 01:46:34;;;;;;;6.53;5.93;;;;;;;18.40;74.75;100835.91;688009;28;4368;-43
2022/06/05 01:46:59;;;;;;;6.60;5.90;;;;;;;18.40;75.65;100830.63;692312;28;1186;-43
2022/06/05 01:47:32;;;;;;;6.07;5.47;;;;;;;18.34;75.48;100837.00;689197;28;1251;-46
2022/06/05 01:47:55;;;;;;;6.30;5.70;;;;;;;18.32;75.48;100829.09;690809;28;1226;-43
2022/06/05 01:48:22;;;;;;;6.60;6.00;;;;;;;18.30;75.31;100832.72;689401;28;1131;-43
2022/06/05 01:49:01;;;;;;;6.50;5.90;;;;;;;18.30;75.21;100825.63;691314;28;1423;-43
2022/06/05 01:49:27;;;;;;;6.32;5.70;;;;;;;18.31;75.38;100835.31;690451;28;4511;-49
2022/06/05 01:49:54;;;;;;;6.70;5.95;;;;;;;18.32;74.96;100830.91;690114;28;1431;-44
2022/06/05 01:50:26;;;;;;;6.53;5.88;;;;;;;18.31;75.46;100827.38;690302;28;1214;-45
2022/06/05 01:51:00;;;;;;;7.45;5.75;;;;;;;18.28;76.68;100823.97;690343;28;1285;-43
2022/06/05 01:51:31;;;;;;;6.07;5.43;;;;;;;18.27;76.36;100825.75;691303;28;1162;-43
2022/06/05 01:52:07;;;;;;;6.22;5.60;;;;;;;18.27;75.88;100819.59;693981;28;2165;-43
2022/06/05 01:52:32;;;;;;;6.53;5.90;;;;;;;18.27;75.50;100828.38;692987;28;4930;-43
2022/06/05 01:52:59;;;;;;;6.75;5.88;;;;;;;18.27;75.41;100828.38;692838;28;1674;-43
2022/06/05 01:53:29;;;;;;;6.60;5.82;;;;;;;18.28;75.52;100824.84;692875;28;1447;-44
2022/06/05 01:53:53;;;;;;;6.97;5.70;;;;;;;18.30;75.64;100827.44;689335;28;1226;-43
2022/06/05 01:54:19;;;;;;;6.72;5.82;;;;;;;18.27;75.95;100825.75;690008;28;1333;-45
2022/06/05 01:54:54;;;;;;;6.15;5.55;;;;;;;18.25;75.67;100827.59;692713;28;1225;-44
2022/06/05 01:55:21;;;;;;;6.30;5.70;;;;;;;18.27;75.97;100828.38;691435;28;1020;-44
2022/06/05 01:55:43;;;;;;;6.28;5.68;;;;;;;18.24;75.85;100815.28;690851;28;5292;-43
2022/06/05 01:56:19;;;;;;;6.50;5.90;;;;;;;18.22;76.36;100822.41;692515;28;1527;-44
2022/06/05 01:56:44;;;;;;;6.50;5.90;;;;;;;18.22;75.83;100819.78;689310;28;1160;-43
2022/06/05 01:57:08;;;;;;;6.53;5.78;;;;;;;18.23;75.86;100817.97;690386;28;1492;-44
2022/06/05 01:57:31;;;;;;;6.60;5.90;;;;;;;18.19;76.72;100819.84;690138;28;1076;-43
2022/06/05 01:57:55;;;;;;;6.70;6.00;;;;;;;18.18;76.33;100812.84;689322;28;1283;-43
2022/06/05 01:58:19;;;;;;;6.50;5.90;;;;;;;18.27;76.53;100816.94;689902;28;1100;-43
2022/06/05 01:58:44;;;;;;;6.95;6.07;;;;;;;18.22;76.74;100809.19;689018;28;4324;-44
2022/06/05 01:59:16;;;;;;;6.97;5.90;;;;;;;18.23;76.73;100812.69;690215;28;1397;-44
2022/06/05 01:59:42;;;;;;;6.32;5.63;;;;;;;18.19;76.37;100814.56;686746;28;1237;-44
2022/06/05 02:00:15;;;;;;;7.07;5.88;;;;;;;18.15;77.08;100807.63;686801;28;1166;-46
2022/06/05 02:00:36;;;;;;;6.40;5.75;;;;;;;18.13;77.19;100809.50;685739;28;916;-45
2022/06/05 02:01:02;;;;;;;6.27;5.67;;;;;;;18.19;76.56;100803.97;686631;28;1155;-43
2022/06/05 02:01:30;;;;;;;6.60;5.80;;;;;;;18.18;75.96;100803.13;687306;28;4645;-43
2022/06/05 02:01:57;;;;;;;7.07;5.70;;;;;;;18.21;76.15;100800.34;690995;28;1175;-43
2022/06/05 02:02:28;;;;;;;6.45;5.82;;;;;;;18.18;75.81;100797.81;690187;28;1056;-43
2022/06/05 02:02:53;;;;;;;6.13;5.53;;;;;;;18.17;76.86;100803.19;689010;28;1219;-43
2022/06/05 02:03:25;;;;;;;6.20;5.60;;;;;;;18.14;76.50;100795.34;690214;28;1193;-43
2022/06/05 02:03:52;;;;;;;7.45;5.85;;;;;;;18.17;76.88;100798.75;691219;28;1224;-43
2022/06/05 02:04:18;;;;;;;6.72;5.60;;;;;;;18.21;76.07;100796.88;691309;28;1362;-44
2022/06/05 02:04:43;;;;;;;6.28;5.68;;;;;;;18.22;75.87;100793.31;688226;28;4301;-43
2022/06/05 02:05:14;;;;;;;6.45;5.85;;;;;;;18.25;76.33;100794.97;689817;28;1115;-42
2022/06/05 02:05:47;;;;;;;6.28;5.68;;;;;;;18.26;77.01;100789.59;688705;28;1310;-43
2022/06/05 02:06:15;;;;;;;6.82;6.13;;;;;;;18.25;75.79;100787.03;689316;28;1301;-44
2022/06/05 02:06:42;;;;;;;6.55;5.95;;;;;;;18.23;75.63;100786.22;689525;28;1171;-44
2022/06/05 02:07:13;;;;;;;6.20;5.60;;;;;;;18.24;75.63;100786.16;690123;28;1163;-43
2022/06/05 02:07:47;;;;;;;7.13;5.82;;;;;;;18.27;75.58;100787.84;689489;28;4533;-44
2022/06/05 02:08:19;;;;;;;6.88;5.90;;;;;;;18.34;74.97;100781.41;690690;28;1186;-44
2022/06/05 02:08:47;;;;;;;6.40;5.80;;;;;;;18.27;75.42;100786.06;690036;28;1283;-43
2022/06/05 02:09:34;;;;;;;7.53;5.93;;;;;;;18.24;75.50;100782.66;690472;28;1307;-42
2022/06/05 02:10:14;;;;;;;6.85;5.85;;;;;;;18.24;75.78;100780.88;689642;28;1214;-45
2022/06/05 02:10:45;;;;;;;6.32;5.72;;;;;;;18.21;75.70;100781.00;690155;28;4289;-44
2022/06/05 02:11:15;;;;;;;6.63;6.03;;;;;;;18.24;75.74;100780.88;691180;28;1384;-43
2022/06/05 02:11:36;;;;;;;6.45;5.85;;;;;;;18.31;75.58;100781.53;691534;28;1158;-43
2022/06/05 02:11:57;;;;;;;6.37;5.77;;;;;;;18.24;76.54;100777.38;692676;28;941;-43
2022/06/05 02:12:18;;;;;;;7.15;6.10;;;;;;;18.23;76.18;100779.13;692723;28;1330;-43
2022/06/05 02:12:39;;;;;;;6.63;5.90;;;;;;;18.22;76.28;100772.16;693401;28;1292;-44
2022/06/05 02:13:00;;;;;;;6.50;5.85;;;;;;;18.23;76.36;100770.34;688314;28;1052;-43
2022/06/05 02:13:20;;;;;;;8.00;5.90;;;;;;;18.23;75.80;100773.84;689158;28;4340;-44
2022/06/05 02:13:41;;;;;;;7.53;6.03;;;;;;;18.21;75.92;100773.06;688939;28;1304;-43
2022/06/05 02:14:05;;;;;;;6.32;5.72;;;;;;;18.21;76.08;100775.69;688766;28;1281;-43
2022/06/05 02:14:25;;;;;;;6.43;5.75;;;;;;;18.18;76.32;100771.38;686686;28;1214;-44